Harvest Peace — V7VE7 — position and weather

sailwx.info

Track history (hours):
 
Tides and Currents Weather Stations Pressure Air Temp Water Temp Dewpoint Dewpoint Depression Visibility Wind Speed Wind Dir Waves Ship Positions

Harvest Peace

Last reported at 2016-Jul-21 22:20 UTC. Time now 2016-Jul-27 07:49 UTC.
Position S 30°13' E 031°44'.

Length 225 m; draft 12.3 m.

Type: Cargo ship. MMSI: 538004103.

Date/timePositionNaut miles runAvg speedWind from/ knotsBaromVisibWave heightAir tempDewpointWater temp
2016-Jul-21 22:20S 30°13' E 031°44'1012.4
2016-Jul-21 21:33S 30°05' E 031°51'1312.6
2016-Jul-21 20:33S 29°56' E 031°60'4013.1
2016-Jul-21 17:31S 29°23' E 032°27'1313.4
2016-Jul-21 16:33S 29°13' E 032°36'1312.8
2016-Jul-21 15:33S 29°03' E 032°44'1312.7
2016-Jul-21 14:33S 28°52' E 032°53'1313.1
2016-Jul-21 13:33S 28°42' E 033°02'1313.2
2016-Jul-21 12:33S 28°32' E 033°11'1813.3
2016-Jul-21 11:14S 28°18' E 033°24'  
Track history (hours):
 
Tides and Currents Weather Stations Pressure Air Temp Water Temp Dewpoint Dewpoint Depression Visibility Wind Speed Wind Dir Waves Ship Positions

Harvest Peace

Last reported at 2016-Jul-21 22:20 UTC. Time now 2016-Jul-27 07:49 UTC.
Position S 30°13' E 031°44'.

Length 225 m; draft 12.3 m.

Type: Cargo ship. MMSI: 538004103.

Date/timePositionNaut miles runAvg speedWind from/ knotsBaromVisibWave heightAir tempDewpointWater temp
2016-Jul-21 22:20S 30°13' E 031°44'1012.4
2016-Jul-21 21:33S 30°05' E 031°51'1312.6
2016-Jul-21 20:33S 29°56' E 031°60'4013.1
2016-Jul-21 17:31S 29°23' E 032°27'1313.4
2016-Jul-21 16:33S 29°13' E 032°36'1312.8
2016-Jul-21 15:33S 29°03' E 032°44'1312.7
2016-Jul-21 14:33S 28°52' E 032°53'1313.1
2016-Jul-21 13:33S 28°42' E 033°02'1313.2
2016-Jul-21 12:33S 28°32' E 033°11'1813.3
2016-Jul-21 11:14S 28°18' E 033°24'  

Dump ship's entire track history